Terminal Aerodrome Forecast
Issued by NWS

Current Version | Previous Version | Text Only | Print | Product List | Glossary Off
Versions: 1 2 3 4 5 6 7 8 9 10 11 12 13 14 15 16 17 18

000
FTUS41 KPBZ 150200 AAA
TAFMGW
TAF AMD
KMGW 150234Z 1503/1524 18005KT P6SM BKN080
     FM150900 25012KT 5SM -RA BR OVC015
     FM151200 30012KT 3SM -SHRA OVC007
     FM151700 30012G25KT 4SM -SHSN OVC015
     FM152100 32015G25KT P6SM BKN035=

USA.gov is the U.S. government's official web portal to all federal, state and local government web resources and services.